Time;durP1;ratioP1;P1;durP2;ratioP2;P2;SDS_P1;SDS_P2;PMS_P1;PMS_P2;Temp;Humidity;BMP_temperature;BMP_pressure;BME280_temperature;BME280_humidity;BME280_pressure;Samples;Min_cycle;Max_cycle;Signal;HPM_P1;HPM_P2
2023/03/07 00:02:03;;;;;;;17.20;8.30;;;;;;;9.58;66.61;93876.28;5016667;28;20219;-84
2023/03/07 00:04:30;;;;;;;13.17;7.60;;;;;;;9.61;66.41;93880.97;5020097;28;20225;-85
2023/03/07 00:06:57;;;;;;;12.70;7.53;;;;;;;9.63;65.91;93861.59;5020991;28;20211;-86
2023/03/07 00:09:24;;;;;;;9.93;6.90;;;;;;;9.65;66.10;93871.72;5022648;28;20716;-86
2023/03/07 00:11:51;;;;;;;14.60;7.17;;;;;;;9.66;65.94;93873.31;5027770;28;20214;-87
2023/03/07 00:14:18;;;;;;;12.23;7.63;;;;;;;9.64;66.29;93857.97;5023823;28;20559;-87
2023/03/07 00:16:49;;;;;;;15.33;7.90;;;;;;;9.71;65.56;93860.44;5019406;28;20203;-86
2023/03/07 00:19:17;;;;;;;12.37;7.90;;;;;;;9.67;65.70;93862.69;5022933;28;20198;-86
2023/03/07 00:21:44;;;;;;;11.40;7.77;;;;;;;9.71;65.93;93852.66;5022956;28;20297;-86
2023/03/07 00:24:11;;;;;;;12.47;7.90;;;;;;;9.68;66.21;93847.91;5022272;28;20685;-86
2023/03/07 00:26:38;;;;;;;15.87;10.00;;;;;;;9.59;66.98;93854.50;5025235;28;20649;-88
2023/03/07 00:29:06;;;;;;;33.30;18.53;;;;;;;9.62;66.21;93856.63;5024015;28;20702;-87
2023/03/07 00:31:33;;;;;;;27.67;15.40;;;;;;;9.53;67.58;93845.84;5020872;28;20843;-87
2023/03/07 00:34:01;;;;;;;37.47;19.73;;;;;;;9.58;68.07;93842.56;5029971;28;20269;-86
2023/03/07 00:36:28;;;;;;;29.53;16.27;;;;;;;9.55;68.46;93843.03;5021597;28;20569;-87
2023/03/07 00:38:56;;;;;;;33.30;17.07;;;;;;;9.43;67.95;93837.88;5023102;28;20665;-86
2023/03/07 00:41:24;;;;;;;29.30;16.47;;;;;;;9.48;67.79;93840.56;5016814;28;20213;-88
2023/03/07 00:43:51;;;;;;;17.67;10.33;;;;;;;9.66;65.59;93845.56;5030009;28;20210;-86
2023/03/07 00:46:21;;;;;;;19.07;10.03;;;;;;;9.52;66.78;93833.13;5019787;28;20580;-86
2023/03/07 00:48:48;;;;;;;18.23;9.60;;;;;;;9.35;68.74;93837.47;5019726;28;20233;-85
2023/03/07 00:51:18;;;;;;;16.13;10.07;;;;;;;9.16;69.87;93829.03;5025153;28;20231;-85
2023/03/07 00:53:45;;;;;;;16.37;9.93;;;;;;;9.23;70.69;93829.72;5020061;28;20297;-85
2023/03/07 00:56:14;;;;;;;16.93;9.73;;;;;;;9.14;71.04;93833.69;5025709;28;20209;-86
2023/03/07 00:58:41;;;;;;;20.43;10.63;;;;;;;9.08;71.80;93829.41;5023656;28;20585;-86
2023/03/07 01:01:11;;;;;;;20.97;11.40;;;;;;;9.11;71.23;93849.69;5026747;28;20253;-86
2023/03/07 01:03:38;;;;;;;22.20;11.60;;;;;;;8.94;71.89;93839.22;5019705;28;20210;-85
2023/03/07 01:06:07;;;;;;;22.30;12.00;;;;;;;8.86;72.38;93838.81;5020800;28;20211;-86
2023/03/07 01:08:36;;;;;;;21.87;11.77;;;;;;;8.73;72.24;93813.91;5023432;28;20277;-84
2023/03/07 01:11:05;;;;;;;24.10;12.27;;;;;;;8.94;72.33;93834.06;5029861;28;20209;-84
2023/03/07 01:13:33;;;;;;;21.87;12.10;;;;;;;8.80;72.90;93830.09;5027589;28;20206;-83
2023/03/07 01:16:07;;;;;;;23.53;12.17;;;;;;;8.77;72.96;93822.81;5032303;28;20214;-82
2023/03/07 01:18:34;;;;;;;26.60;11.73;;;;;;;8.76;73.33;93812.66;5032949;28;20203;-84
2023/03/07 01:21:01;;;;;;;22.80;12.47;;;;;;;8.76;73.90;93804.91;5025227;28;20234;-81
2023/03/07 01:23:28;;;;;;;20.87;11.90;;;;;;;8.51;74.27;93792.97;5025535;28;20211;-83
2023/03/07 01:25:56;;;;;;;21.13;11.70;;;;;;;8.41;74.92;93776.44;5022377;28;20222;-82
2023/03/07 01:28:23;;;;;;;21.47;11.63;;;;;;;8.53;74.90;93798.72;5027661;28;20653;-84
2023/03/07 01:30:57;;;;;;;23.83;11.90;;;;;;;8.56;74.71;93794.91;5023798;28;20581;-86
2023/03/07 01:33:24;;;;;;;21.60;11.43;;;;;;;8.54;75.54;93784.75;5030847;28;20388;-85
2023/03/07 01:35:51;;;;;;;18.73;11.23;;;;;;;8.57;74.56;93799.84;5025996;28;20203;-85
2023/03/07 01:38:18;;;;;;;18.23;11.23;;;;;;;8.53;74.80;93797.94;5018170;28;20214;-86
2023/03/07 01:40:45;;;;;;;21.27;11.60;;;;;;;8.51;75.21;93784.44;5021924;28;20206;-83
2023/03/07 01:43:25;;;;;;;22.63;12.30;;;;;;;8.56;74.61;93789.72;5021213;28;20198;-83
2023/03/07 01:46:40;;;;;;;27.13;13.60;;;;;;;8.60;74.38;93777.13;5016644;28;20199;-84
2023/03/07 01:49:11;;;;;;;29.53;14.80;;;;;;;8.51;74.61;93787.78;5026634;28;20229;-83
2023/03/07 01:51:40;;;;;;;29.10;13.67;;;;;;;8.40;75.52;93795.56;5024288;28;20207;-84
2023/03/07 01:54:11;;;;;;;29.37;13.00;;;;;;;8.44;75.71;93801.88;5026244;28;20696;-84
2023/03/07 01:56:39;;;;;;;20.60;11.77;;;;;;;8.42;75.75;93794.34;5022771;28;20206;-84
2023/03/07 01:59:09;;;;;;;18.27;10.03;;;;;;;8.50;75.38;93809.53;5017781;28;20207;-85
2023/03/07 02:01:37;;;;;;;19.33;10.60;;;;;;;8.49;75.61;93800.19;5025596;28;20301;-85
2023/03/07 02:04:11;;;;;;;18.47;10.77;;;;;;;8.52;75.07;93788.59;5024352;28;20203;-85
2023/03/07 02:06:39;;;;;;;21.00;10.13;;;;;;;8.31;75.50;93795.13;5024470;28;20201;-85
2023/03/07 02:09:11;;;;;;;21.07;11.17;;;;;;;8.35;74.72;93811.00;5021095;28;20731;-82
2023/03/07 02:11:40;;;;;;;20.47;10.70;;;;;;;8.21;74.94;93781.94;5023385;28;20678;-83
2023/03/07 02:14:08;;;;;;;19.07;10.50;;;;;;;8.13;75.56;93769.31;5027404;28;20222;-84
2023/03/07 02:16:37;;;;;;;18.97;10.40;;;;;;;8.17;76.29;93761.88;5022373;28;20192;-85
2023/03/07 02:19:09;;;;;;;18.20;9.93;;;;;;;7.76;76.10;93722.16;5021705;28;21705;-84
2023/03/07 02:21:44;;;;;;;18.00;10.33;;;;;;;8.15;76.66;93793.16;5027134;28;20200;-84
2023/03/07 02:24:22;;;;;;;18.67;10.67;;;;;;;8.13;76.89;93797.78;5025901;28;20230;-85
2023/03/07 02:26:52;;;;;;;19.70;9.97;;;;;;;8.15;76.95;93782.03;5023738;28;20210;-82
2023/03/07 02:29:19;;;;;;;16.60;10.47;;;;;;;8.17;76.78;93788.56;5023327;28;20298;-83
2023/03/07 02:31:46;;;;;;;15.33;9.67;;;;;;;8.20;75.42;93782.13;5024351;28;20199;-83
2023/03/07 02:34:21;;;;;;;18.03;9.47;;;;;;;8.15;75.77;93789.78;5024483;28;20203;-84
2023/03/07 02:36:50;;;;;;;16.97;9.23;;;;;;;7.88;75.39;93751.41;5026392;28;20210;-84
2023/03/07 02:39:20;;;;;;;16.93;9.70;;;;;;;8.20;75.82;93798.47;5027571;28;20654;-89
2023/03/07 02:41:47;;;;;;;16.70;9.20;;;;;;;8.16;75.71;93788.78;5022861;28;20222;-89
2023/03/07 02:44:15;;;;;;;19.50;10.13;;;;;;;8.03;75.62;93758.72;5025851;28;20687;-88
2023/03/07 02:46:42;;;;;;;19.03;9.87;;;;;;;8.20;75.98;93802.84;5030138;28;20579;-88
2023/03/07 02:49:09;;;;;;;15.63;9.33;;;;;;;7.96;76.44;93768.41;5023048;28;20649;-88
2023/03/07 02:51:45;;;;;;;18.70;11.33;;;;;;;8.10;75.76;93784.50;5025140;28;20206;-83
2023/03/07 02:54:12;;;;;;;20.57;10.13;;;;;;;8.24;76.25;93793.63;5024358;28;20191;-83
2023/03/07 02:56:45;;;;;;;19.17;9.93;;;;;;;8.28;75.12;93795.56;5029666;28;20210;-85
2023/03/07 02:59:12;;;;;;;15.67;9.47;;;;;;;8.29;76.17;93801.53;5025112;28;20206;-85
2023/03/07 03:01:51;;;;;;;17.20;9.97;;;;;;;8.13;76.06;93765.94;5026564;28;20222;-86
2023/03/07 03:04:19;;;;;;;18.13;10.57;;;;;;;8.28;76.13;93787.78;5028381;28;20203;-85
2023/03/07 03:06:46;;;;;;;22.40;10.83;;;;;;;8.34;75.42;93799.84;5025398;28;20218;-86
2023/03/07 03:09:13;;;;;;;18.00;10.47;;;;;;;8.32;75.83;93791.53;5014446;28;20192;-86
2023/03/07 03:11:40;;;;;;;20.03;10.30;;;;;;;8.39;75.88;93787.03;5029550;28;20199;-86
2023/03/07 03:14:07;;;;;;;16.43;10.03;;;;;;;8.33;76.16;93795.69;5025606;28;20204;-89
2023/03/07 03:16:34;;;;;;;20.60;9.77;;;;;;;8.18;76.93;93791.94;5023850;28;20289;-88
2023/03/07 03:19:02;;;;;;;18.50;9.93;;;;;;;8.21;77.65;93796.66;5019577;28;20290;-87
2023/03/07 03:21:29;;;;;;;15.03;9.77;;;;;;;8.21;76.99;93786.31;5023353;28;20212;-87
2023/03/07 03:23:56;;;;;;;20.27;9.87;;;;;;;8.13;76.78;93777.09;5024987;28;20202;-87
2023/03/07 03:26:23;;;;;;;18.40;10.13;;;;;;;8.14;77.29;93778.66;5025369;28;20650;-88
2023/03/07 03:28:50;;;;;;;22.83;10.07;;;;;;;8.23;77.52;93785.06;5030575;28;20198;-86
2023/03/07 03:31:17;;;;;;;18.40;10.60;;;;;;;8.24;77.78;93798.81;5019256;28;20222;-86
2023/03/07 03:33:44;;;;;;;21.17;9.77;;;;;;;8.23;77.20;93803.19;5024327;28;20202;-87
2023/03/07 03:36:15;;;;;;;18.33;10.27;;;;;;;8.08;77.56;93773.59;5027874;28;20229;-87
2023/03/07 03:38:43;;;;;;;17.57;8.67;;;;;;;8.23;77.52;93807.56;5026700;28;20236;-90
2023/03/07 03:41:12;;;;;;;15.67;9.43;;;;;;;8.13;77.49;93771.91;5033008;28;20294;-89
2023/03/07 03:43:39;;;;;;;17.50;9.40;;;;;;;7.93;77.48;93754.13;5028326;28;20198;-90
2023/03/07 03:46:06;;;;;;;20.17;10.20;;;;;;;7.98;77.39;93769.75;5022696;28;20582;-89
2023/03/07 03:48:33;;;;;;;20.90;10.40;;;;;;;8.23;77.68;93807.56;5023758;28;20235;-88
2023/03/07 03:51:01;;;;;;;19.10;10.27;;;;;;;8.04;77.43;93796.53;5042777;28;20222;-89
2023/03/07 03:53:30;;;;;;;20.07;11.43;;;;;;;8.12;77.66;93811.72;5040176;28;20214;-88
2023/03/07 03:56:05;;;;;;;22.13;9.87;;;;;;;8.12;77.92;93787.66;5033203;28;20238;-88
2023/03/07 03:58:32;;;;;;;18.40;10.00;;;;;;;8.18;78.76;93791.94;5020158;28;20232;-87
2023/03/07 04:01:02;;;;;;;19.57;10.43;;;;;;;8.30;77.99;93803.91;5025075;28;20194;-86
2023/03/07 04:03:31;;;;;;;20.37;10.40;;;;;;;8.15;77.27;93790.59;5019982;28;20970;-87
2023/03/07 04:06:01;;;;;;;21.87;10.30;;;;;;;8.13;77.96;93802.19;5019462;28;20210;-86
2023/03/07 04:08:30;;;;;;;19.20;10.90;;;;;;;8.18;78.25;93791.94;5022858;28;20643;-87
2023/03/07 04:10:57;;;;;;;17.30;10.27;;;;;;;8.15;77.98;93792.38;5020674;28;20226;-87
2023/03/07 04:13:24;;;;;;;16.43;9.37;;;;;;;8.10;77.41;93792.28;5014632;28;20221;-86
2023/03/07 04:15:51;;;;;;;16.00;9.67;;;;;;;8.06;78.93;93798.88;5024195;28;20732;-84
2023/03/07 04:18:18;;;;;;;16.87;9.83;;;;;;;8.17;78.35;93798.91;5029622;28;20199;-82
2023/03/07 04:20:45;;;;;;;17.80;10.07;;;;;;;8.16;77.34;93783.63;5021329;28;20202;-83
2023/03/07 04:23:12;;;;;;;19.90;10.60;;;;;;;8.13;77.39;93791.81;5023558;28;20214;-86
2023/03/07 04:25:40;;;;;;;18.67;10.40;;;;;;;8.16;77.35;93814.66;5030244;28;20203;-87
2023/03/07 04:28:07;;;;;;;20.17;11.23;;;;;;;8.20;77.83;93813.19;5019850;28;20592;-87
2023/03/07 04:30:34;;;;;;;20.87;11.83;;;;;;;8.18;nan;93820.41;5022510;28;20231;-86
2023/03/07 04:33:01;;;;;;;25.20;12.50;;;;;;;8.09;78.47;93808.78;5019064;28;20247;-86
2023/03/07 04:35:28;;;;;;;23.50;11.97;;;;;;;8.18;78.96;93823.78;5022557;28;20211;-86
2023/03/07 04:37:54;;;;;;;20.70;11.37;;;;;;;8.24;78.44;93824.69;5022561;28;20214;-85
2023/03/07 04:40:21;;;;;;;17.47;10.67;;;;;;;8.08;77.89;93799.47;5017915;28;20199;-87
2023/03/07 04:42:49;;;;;;;24.07;11.27;;;;;;;8.23;79.06;93818.72;5030205;28;20203;-87
2023/03/07 04:45:17;;;;;;;21.10;11.10;;;;;;;8.18;78.52;93807.47;5021287;28;20214;-88
2023/03/07 04:47:43;;;;;;;18.03;9.90;;;;;;;8.17;78.13;93816.22;5015748;28;20203;-87
2023/03/07 04:50:11;;;;;;;18.70;10.47;;;;;;;7.98;78.21;93818.91;5024846;28;20236;-86
2023/03/07 04:52:37;;;;;;;28.93;11.97;;;;;;;8.00;78.03;93824.66;5022163;28;20203;-85
2023/03/07 04:55:06;;;;;;;23.83;11.93;;;;;;;7.96;78.86;93826.09;5007551;28;20210;-87
2023/03/07 04:57:33;;;;;;;25.50;12.37;;;;;;;7.96;79.52;93820.91;5018382;28;21294;-90
2023/03/07 05:00:01;;;;;;;24.03;12.13;;;;;;;7.85;79.11;93803.59;5019532;28;20199;-90
2023/03/07 05:02:28;;;;;;;29.17;12.33;;;;;;;7.92;79.45;93809.47;5032788;28;20211;-92
2023/03/07 05:04:55;;;;;;;20.30;11.47;;;;;;;7.91;79.42;93809.66;5022939;28;20207;-90
2023/03/07 05:07:22;;;;;;;25.13;12.33;;;;;;;8.15;79.35;93826.03;5013748;28;20206;-85
2023/03/07 05:09:49;;;;;;;26.10;12.10;;;;;;;8.11;79.37;93830.84;5021184;28;20283;-83
2023/03/07 05:12:15;;;;;;;27.87;11.77;;;;;;;8.18;79.56;93830.75;5020300;28;20199;-82
2023/03/07 05:14:42;;;;;;;20.97;10.70;;;;;;;8.23;78.57;93828.28;5025771;28;20202;-81
2023/03/07 05:17:10;;;;;;;21.07;11.40;;;;;;;8.30;77.98;93827.19;5014118;28;20226;-82
2023/03/07 05:19:37;;;;;;;18.07;10.77;;;;;;;8.32;77.74;93825.16;5022778;28;20638;-82
2023/03/07 05:22:25;;;;;;;21.93;11.67;;;;;;;8.27;77.77;93819.06;5021599;28;20684;-84
2023/03/07 05:24:52;;;;;;;22.53;11.67;;;;;;;8.21;78.36;93794.88;5020083;28;20199;-83
2023/03/07 05:27:18;;;;;;;20.67;11.30;;;;;;;8.42;77.50;93825.41;5019094;28;20955;-82
2023/03/07 05:29:45;;;;;;;24.30;12.40;;;;;;;8.32;77.62;93827.75;5020698;28;20203;-83
2023/03/07 05:32:14;;;;;;;23.40;10.87;;;;;;;8.14;78.45;93791.59;5024777;28;20704;-83
2023/03/07 05:34:41;;;;;;;21.60;11.80;;;;;;;8.21;79.21;93825.91;5022432;28;20204;-84
2023/03/07 05:37:08;;;;;;;23.37;11.17;;;;;;;8.14;79.25;93840.75;5022270;28;20202;-83
2023/03/07 05:39:35;;;;;;;22.37;11.93;;;;;;;8.15;79.33;93841.53;5023645;28;20213;-83
2023/03/07 05:42:01;;;;;;;27.43;11.83;;;;;;;8.12;79.57;93855.72;5020647;28;20211;-84
2023/03/07 05:44:28;;;;;;;22.73;11.87;;;;;;;8.18;79.51;93854.84;5019802;28;20203;-79
2023/03/07 05:46:55;;;;;;;21.73;12.40;;;;;;;8.20;79.61;93845.03;5023912;28;20207;-84
2023/03/07 05:49:23;;;;;;;26.87;11.50;;;;;;;8.14;79.76;93835.56;5022680;28;20237;-82
2023/03/07 05:51:50;;;;;;;27.07;12.50;;;;;;;8.14;79.92;93853.69;5023679;28;20756;-83
2023/03/07 05:54:17;;;;;;;21.37;11.83;;;;;;;8.17;79.90;93855.03;5021535;28;20215;-83
2023/03/07 05:56:44;;;;;;;23.60;12.00;;;;;;;8.19;80.58;93855.63;5025886;28;20226;-83
2023/03/07 05:59:14;;;;;;;28.53;11.60;;;;;;;8.24;80.93;93850.56;5027379;28;20210;-83
2023/03/07 06:01:41;;;;;;;24.23;12.17;;;;;;;8.34;80.53;93854.19;5019682;28;20215;-83
2023/03/07 06:04:08;;;;;;;23.57;12.70;;;;;;;8.42;80.25;93856.47;5023337;28;20315;-83
2023/03/07 06:06:37;;;;;;;29.77;12.30;;;;;;;8.43;80.04;93870.19;5025462;28;20206;-83
2023/03/07 06:09:06;;;;;;;24.07;12.03;;;;;;;8.29;79.68;93848.13;5026736;28;20253;-84
2023/03/07 06:11:36;;;;;;;21.73;12.03;;;;;;;8.38;80.32;93862.31;5025646;28;20231;-83
2023/03/07 06:14:02;;;;;;;25.73;11.60;;;;;;;8.43;81.03;93857.25;5021223;28;20211;-83
2023/03/07 06:16:29;;;;;;;23.70;12.13;;;;;;;8.47;80.85;93845.44;5028136;28;20222;-83
2023/03/07 06:18:56;;;;;;;21.10;12.03;;;;;;;8.34;80.97;93840.50;5024217;28;20209;-83
2023/03/07 06:21:23;;;;;;;33.53;15.50;;;;;;;8.43;81.74;93870.97;5026948;28;20207;-84
2023/03/07 06:23:51;;;;;;;25.13;14.07;;;;;;;8.33;80.97;93829.34;5021294;28;20199;-85
2023/03/07 06:26:30;;;;;;;27.57;14.10;;;;;;;8.54;81.18;93856.50;5021998;28;20273;-83
2023/03/07 06:28:57;;;;;;;26.23;12.20;;;;;;;8.66;79.92;93866.84;5022760;28;20211;-83
2023/03/07 06:31:23;;;;;;;23.83;12.90;;;;;;;8.57;80.58;93852.66;5019768;28;20231;-83
2023/03/07 06:33:52;;;;;;;26.43;12.40;;;;;;;8.62;80.93;93855.34;5027155;28;20207;-83
2023/03/07 06:36:20;;;;;;;22.37;12.37;;;;;;;8.66;80.91;93864.25;5021124;28;20745;-82
2023/03/07 06:38:47;;;;;;;25.63;13.23;;;;;;;8.61;80.93;93869.31;5022789;28;20262;-82
2023/03/07 06:41:16;;;;;;;27.03;12.90;;;;;;;8.54;80.76;93859.84;5030399;28;20199;-82
2023/03/07 06:43:43;;;;;;;21.13;12.00;;;;;;;8.73;80.53;93876.06;5023548;28;20207;-83
2023/03/07 06:46:10;;;;;;;25.40;12.27;;;;;;;8.79;79.74;93864.81;5029554;28;20206;-83
2023/03/07 06:48:37;;;;;;;22.60;12.53;;;;;;;8.98;80.02;93883.59;5018056;28;20578;-82
2023/03/07 06:51:06;;;;;;;21.10;11.53;;;;;;;9.07;79.18;93893.41;5024310;28;20235;-83
2023/03/07 06:53:33;;;;;;;25.83;12.90;;;;;;;9.18;79.32;93884.03;5019203;28;20211;-83
2023/03/07 06:56:00;;;;;;;26.47;12.53;;;;;;;9.19;78.45;93893.38;5026214;28;20214;-82
2023/03/07 06:58:28;;;;;;;23.47;11.77;;;;;;;8.98;77.06;93848.13;5016927;28;20214;-84
2023/03/07 07:00:56;;;;;;;24.67;12.53;;;;;;;9.23;77.68;93878.97;5023796;28;20207;-84
2023/03/07 07:03:23;;;;;;;26.07;11.33;;;;;;;9.15;78.12;93865.56;5028990;28;20215;-83
2023/03/07 07:05:49;;;;;;;22.80;11.97;;;;;;;9.30;77.36;93879.59;5022567;28;20195;-84
2023/03/07 07:08:16;;;;;;;19.57;11.40;;;;;;;9.32;77.77;93863.84;5020500;28;20195;-84
2023/03/07 07:10:45;;;;;;;20.90;11.47;;;;;;;9.37;77.50;93864.72;5027795;28;20219;-87
2023/03/07 07:13:12;;;;;;;23.80;11.87;;;;;;;9.54;76.94;93877.75;5017669;28;20213;-85
2023/03/07 07:15:42;;;;;;;20.30;11.77;;;;;;;9.63;76.77;93873.78;5027511;28;20223;-85
2023/03/07 07:18:12;;;;;;;25.03;11.90;;;;;;;9.85;75.66;93879.09;5030366;28;20202;-86
2023/03/07 07:20:39;;;;;;;21.63;12.57;;;;;;;9.96;75.05;93881.63;5015575;28;20250;-83
2023/03/07 07:23:06;;;;;;;20.30;12.07;;;;;;;10.00;74.56;93880.16;5026692;28;20213;-83
2023/03/07 07:25:32;;;;;;;25.23;12.33;;;;;;;10.11;73.84;93886.31;5020609;28;20221;-83
2023/03/07 07:27:59;;;;;;;19.20;11.10;;;;;;;10.17;73.77;93888.81;5026024;28;20211;-85
2023/03/07 07:30:27;;;;;;;22.50;12.50;;;;;;;10.15;71.94;93883.06;5015723;28;20206;-84
2023/03/07 07:32:55;;;;;;;26.43;11.67;;;;;;;10.28;71.20;93879.38;5024801;28;21720;-84
2023/03/07 07:35:22;;;;;;;17.13;10.83;;;;;;;10.28;71.48;93889.75;5025518;28;20206;-84
2023/03/07 07:37:49;;;;;;;22.07;11.10;;;;;;;10.16;71.70;93868.25;5024963;28;20700;-85
2023/03/07 07:40:16;;;;;;;22.37;11.33;;;;;;;10.30;70.82;93890.31;5021040;28;20206;-86
2023/03/07 07:42:43;;;;;;;19.50;11.77;;;;;;;10.14;71.38;93867.69;5013893;28;20550;-85
2023/03/07 07:45:11;;;;;;;19.37;11.13;;;;;;;10.47;70.44;93901.50;5023960;28;20195;-85
2023/03/07 07:47:38;;;;;;;19.97;11.30;;;;;;;10.42;69.98;93892.84;5028103;28;20577;-85
2023/03/07 07:50:07;;;;;;;19.43;10.93;;;;;;;10.46;70.31;93896.53;5023890;28;20235;-85
2023/03/07 07:52:35;;;;;;;21.07;10.97;;;;;;;10.54;70.64;93896.13;5019966;28;20225;-85
2023/03/07 07:55:02;;;;;;;16.63;10.80;;;;;;;10.66;70.03;93904.66;5021347;28;20262;-85
2023/03/07 07:57:29;;;;;;;31.10;11.50;;;;;;;10.72;69.55;93903.72;5021000;28;20646;-84
2023/03/07 07:59:56;;;;;;;23.80;13.07;;;;;;;10.70;70.43;93901.34;5021631;28;20735;-81
2023/03/07 08:02:23;;;;;;;17.70;10.43;;;;;;;10.71;70.36;93907.31;5024035;28;20203;-84
2023/03/07 08:04:50;;;;;;;17.03;11.10;;;;;;;10.82;69.22;93912.44;5018142;28;20261;-81
2023/03/07 08:07:18;;;;;;;18.67;10.27;;;;;;;10.85;69.14;93905.22;5018803;28;20222;-82
2023/03/07 08:09:51;;;;;;;19.20;10.60;;;;;;;11.02;68.54;93917.16;5022831;28;20210;-81
2023/03/07 08:12:21;;;;;;;20.13;10.50;;;;;;;11.14;68.31;93917.06;5028550;28;20215;-83
2023/03/07 08:14:48;;;;;;;15.77;9.93;;;;;;;11.14;67.95;93907.44;5018468;28;20260;-80
2023/03/07 08:17:34;;;;;;;17.47;10.03;;;;;;;11.28;66.79;93903.47;5021580;28;20210;-80
2023/03/07 08:20:06;;;;;;;19.93;10.40;;;;;;;11.40;65.92;93898.94;5018301;28;20219;-81
2023/03/07 08:22:37;;;;;;;21.97;9.90;;;;;;;11.46;65.04;93901.63;5030467;28;20257;-80
2023/03/07 08:25:08;;;;;;;16.77;9.10;;;;;;;11.47;63.99;93910.97;5028496;28;20203;-82
2023/03/07 08:27:35;;;;;;;14.83;8.87;;;;;;;11.45;63.86;93906.03;5017717;28;20199;-81
2023/03/07 08:30:02;;;;;;;18.87;8.70;;;;;;;11.52;63.67;93908.44;5026091;28;20724;-81
2023/03/07 08:32:29;;;;;;;17.03;9.93;;;;;;;11.68;63.33;93905.78;5024239;28;20313;-82
2023/03/07 08:34:56;;;;;;;16.17;9.67;;;;;;;11.74;63.14;93899.66;5028185;28;20203;-80
2023/03/07 08:37:23;;;;;;;15.83;9.90;;;;;;;11.72;62.97;93906.09;5024225;28;20294;-84
2023/03/07 08:39:51;;;;;;;20.53;8.73;;;;;;;11.55;62.97;93884.53;5020391;28;20207;-81
2023/03/07 08:42:19;;;;;;;20.33;9.37;;;;;;;11.74;62.64;93899.66;5026326;28;20222;-79
2023/03/07 08:44:46;;;;;;;18.00;8.83;;;;;;;11.94;62.20;93904.28;5020299;28;20577;-79
2023/03/07 08:47:13;;;;;;;18.63;9.10;;;;;;;11.99;61.23;93901.72;5016981;28;20203;-81
2023/03/07 08:49:40;;;;;;;17.17;9.13;;;;;;;12.21;60.91;93912.88;5021394;28;20238;-82
2023/03/07 08:52:08;;;;;;;14.97;9.40;;;;;;;12.39;60.44;93898.72;5025998;28;20218;-82
2023/03/07 08:54:35;;;;;;;18.50;10.00;;;;;;;12.64;59.76;93901.53;5026142;28;20202;-79
2023/03/07 08:57:03;;;;;;;16.47;9.67;;;;;;;12.59;58.98;93890.28;5022863;28;20243;-85
2023/03/07 08:59:30;;;;;;;18.03;9.57;;;;;;;12.94;58.62;93899.16;5013706;28;20269;-84
2023/03/07 09:01:57;;;;;;;14.30;9.37;;;;;;;13.07;57.02;93898.75;5025447;28;20265;-84
2023/03/07 09:04:24;;;;;;;18.73;9.53;;;;;;;13.30;56.79;93892.38;5021935;28;20580;-83
2023/03/07 09:06:51;;;;;;;22.93;10.23;;;;;;;13.60;56.22;93895.13;5016909;28;20229;-86
2023/03/07 09:09:20;;;;;;;22.10;9.70;;;;;;;13.91;55.99;93897.88;5019798;28;20615;-84
2023/03/07 09:11:47;;;;;;;18.17;9.50;;;;;;;14.20;54.19;93904.97;5019240;28;20285;-83
2023/03/07 09:14:16;;;;;;;21.40;9.23;;;;;;;14.23;52.72;93899.25;5015977;28;20210;-83
2023/03/07 09:16:43;;;;;;;23.10;9.23;;;;;;;14.03;53.25;93891.34;5022560;28;20207;-82
2023/03/07 09:19:10;;;;;;;15.77;9.63;;;;;;;14.19;53.10;93885.13;5024797;28;20226;-81
2023/03/07 09:21:37;;;;;;;17.33;9.27;;;;;;;14.45;52.01;93878.13;5020144;28;20665;-86
2023/03/07 09:24:05;;;;;;;14.23;8.00;;;;;;;14.76;51.17;93889.38;5025145;28;20209;-87
2023/03/07 09:26:32;;;;;;;14.40;8.33;;;;;;;15.15;49.87;93905.31;5016902;28;20254;-84
2023/03/07 09:29:01;;;;;;;18.13;8.00;;;;;;;15.48;49.28;93909.19;5027373;28;20661;-85
2023/03/07 09:31:29;;;;;;;22.20;7.73;;;;;;;15.46;47.57;93848.44;5023610;28;20309;-84
2023/03/07 09:33:57;;;;;;;12.23;7.57;;;;;;;15.97;46.63;93880.47;5024344;28;20235;-81
2023/03/07 09:36:24;;;;;;;14.70;8.00;;;;;;;15.97;45.83;93865.53;5025153;28;20265;-84
2023/03/07 09:38:51;;;;;;;16.10;7.93;;;;;;;16.24;45.56;93868.53;5026273;28;20209;-86
2023/03/07 09:41:54;;;;;;;15.23;7.67;;;;;;;16.55;44.58;93879.63;5028139;28;20658;-84
2023/03/07 09:44:40;;;;;;;12.90;6.07;;;;;;;16.60;44.01;93871.69;5019124;28;20270;-84
2023/03/07 09:47:32;;;;;;;10.93;6.67;;;;;;;16.80;43.43;93878.63;5026589;28;20214;-84
2023/03/07 09:50:03;;;;;;;11.13;6.80;;;;;;;16.91;42.94;93880.88;5024838;28;20234;-85
2023/03/07 09:52:37;;;;;;;12.20;6.53;;;;;;;16.95;43.45;93863.53;5026451;28;20712;-83
2023/03/07 09:55:10;;;;;;;16.83;6.27;;;;;;;17.24;43.05;93865.38;5023138;28;20202;-82
2023/03/07 09:57:45;;;;;;;9.10;5.80;;;;;;;17.45;40.77;93869.34;5030634;28;20199;-81
2023/03/07 10:00:21;;;;;;;8.47;5.83;;;;;;;17.52;40.84;93867.16;5012670;28;20614;-82
2023/03/07 10:02:54;;;;;;;9.37;5.53;;;;;;;17.67;40.35;93855.72;5027370;28;20198;-81
2023/03/07 10:05:31;;;;;;;13.17;5.73;;;;;;;18.21;40.75;93873.72;5029402;28;20675;-82
2023/03/07 10:08:00;;;;;;;11.87;4.70;;;;;;;18.55;38.60;93854.03;5024782;28;20203;-83
2023/03/07 10:10:35;;;;;;;8.93;3.60;;;;;;;18.87;37.24;93860.38;5024162;28;20198;-82
2023/03/07 10:13:25;;;;;;;6.78;4.30;;;;;;;19.11;36.45;93846.00;5022795;28;20318;-82
2023/03/07 10:15:53;;;;;;;10.40;4.68;;;;;;;19.51;36.81;93859.56;5015588;28;20179;-81
2023/03/07 10:18:33;;;;;;;15.18;3.78;;;;;;;19.20;35.20;93849.53;5015566;28;20199;-81
2023/03/07 10:21:07;;;;;;;5.30;3.40;;;;;;;18.95;35.53;93849.97;5032513;28;20218;-82
2023/03/07 10:23:51;;;;;;;7.97;3.65;;;;;;;18.84;36.18;93839.91;5037716;28;20187;-85
2023/03/07 10:26:25;;;;;;;9.75;4.97;;;;;;;19.17;37.36;93825.59;5029023;28;20222;-85
2023/03/07 10:28:53;;;;;;;11.27;5.43;;;;;;;19.56;36.76;93804.88;5035229;28;20194;-85
2023/03/07 10:31:24;;;;;;;13.98;5.65;;;;;;;19.99;35.65;93815.06;5035365;28;20190;-81
2023/03/07 10:33:53;;;;;;;17.13;7.85;;;;;;;19.85;35.67;93840.69;5034845;28;20179;-81
2023/03/07 10:36:22;;;;;;;12.77;5.10;;;;;;;19.27;35.38;93835.97;5034432;28;20195;-82
2023/03/07 10:39:01;;;;;;;7.80;4.40;;;;;;;19.07;35.18;93829.22;5034403;28;20194;-80
2023/03/07 10:41:28;;;;;;;5.03;3.63;;;;;;;19.06;35.08;93825.03;5035220;28;20179;-81
2023/03/07 10:43:56;;;;;;;9.35;5.00;;;;;;;19.16;34.66;93822.19;5034558;28;20702;-85
2023/03/07 10:46:26;;;;;;;9.68;4.47;;;;;;;18.65;34.68;93821.50;5034958;28;20202;-83
2023/03/07 10:49:00;;;;;;;6.80;4.00;;;;;;;18.12;35.51;93807.81;5037721;28;20180;-83
2023/03/07 10:51:43;;;;;;;8.40;3.77;;;;;;;17.69;36.40;93811.56;5034436;28;20183;-83
2023/03/07 10:54:14;;;;;;;6.30;3.70;;;;;;;17.36;36.51;93787.75;5034521;28;20179;-86
2023/03/07 10:56:41;;;;;;;8.53;3.53;;;;;;;17.28;37.35;93798.88;5035158;28;20591;-82
2023/03/07 10:59:09;;;;;;;9.40;4.27;;;;;;;17.30;37.59;93788.88;5037717;28;20201;-84
2023/03/07 11:01:38;;;;;;;8.33;4.50;;;;;;;17.99;37.61;93782.22;5035353;28;20224;-84
2023/03/07 11:04:07;;;;;;;7.83;3.60;;;;;;;18.86;36.11;93793.78;5034813;28;20245;-84
2023/03/07 11:06:37;;;;;;;4.20;2.78;;;;;;;19.30;33.14;93780.06;5035793;28;20290;-83
2023/03/07 11:09:10;;;;;;;3.45;2.58;;;;;;;20.05;33.35;93771.66;5045556;28;20199;-84
2023/03/07 11:11:37;;;;;;;3.63;2.55;;;;;;;20.77;31.67;93785.56;5047289;28;20261;-83
2023/03/07 11:14:07;;;;;;;4.72;2.38;;;;;;;20.94;30.17;93773.22;5048075;28;20195;-81
2023/03/07 11:16:41;;;;;;;2.67;2.05;;;;;;;21.23;29.11;93756.13;5045732;28;20199;-86
2023/03/07 11:19:44;;;;;;;2.08;1.80;;;;;;;21.28;28.70;93759.41;5034786;28;20202;-84
2023/03/07 11:22:24;;;;;;;6.25;2.40;;;;;;;20.87;29.31;93758.88;5032445;28;20191;-84
2023/03/07 11:24:56;;;;;;;10.02;2.90;;;;;;;19.72;30.64;93763.16;5032790;28;20218;-83
2023/03/07 11:27:26;;;;;;;4.75;3.10;;;;;;;18.90;32.57;93749.22;5035391;28;20179;-85
2023/03/07 11:30:17;;;;;;;7.88;3.20;;;;;;;18.40;33.97;93750.81;5034560;28;20195;-84
2023/03/07 11:32:51;;;;;;;7.83;3.10;;;;;;;18.57;34.46;93744.00;5033631;28;20290;-82
2023/03/07 11:35:21;;;;;;;6.03;2.90;;;;;;;18.80;34.32;93742.28;5036449;28;20194;-85
2023/03/07 11:37:57;;;;;;;3.58;2.75;;;;;;;19.10;33.79;93738.28;5039997;28;20565;-86